sensor_id;sensor_type;location;lat;lon;timestamp;P1;durP1;ratioP1;P2;durP2;ratioP2
77598;SDS011;66758;52.078;5.070;2023-11-21T00:01:26;22.87;;;5.77;;
77598;SDS011;66758;52.078;5.070;2023-11-21T00:03:52;42.50;;;7.93;;
77598;SDS011;66758;52.078;5.070;2023-11-21T00:06:20;18.93;;;6.40;;
77598;SDS011;66758;52.078;5.070;2023-11-21T00:08:45;30.60;;;7.17;;
77598;SDS011;66758;52.078;5.070;2023-11-21T00:11:11;24.40;;;6.00;;
77598;SDS011;66758;52.078;5.070;2023-11-21T00:13:36;20.80;;;6.07;;
77598;SDS011;66758;52.078;5.070;2023-11-21T00:16:02;37.57;;;7.37;;
77598;SDS011;66758;52.078;5.070;2023-11-21T00:18:29;33.17;;;6.85;;
77598;SDS011;66758;52.078;5.070;2023-11-21T00:20:56;31.57;;;6.57;;
77598;SDS011;66758;52.078;5.070;2023-11-21T00:23:23;43.45;;;7.10;;
77598;SDS011;66758;52.078;5.070;2023-11-21T00:25:49;23.20;;;6.60;;
77598;SDS011;66758;52.078;5.070;2023-11-21T00:28:14;15.00;;;6.27;;
77598;SDS011;66758;52.078;5.070;2023-11-21T00:30:40;15.65;;;6.07;;
77598;SDS011;66758;52.078;5.070;2023-11-21T00:33:05;14.10;;;6.33;;
77598;SDS011;66758;52.078;5.070;2023-11-21T00:35:30;15.30;;;5.70;;
77598;SDS011;66758;52.078;5.070;2023-11-21T00:37:56;20.57;;;6.67;;
77598;SDS011;66758;52.078;5.070;2023-11-21T00:40:22;16.23;;;6.25;;
77598;SDS011;66758;52.078;5.070;2023-11-21T00:42:47;16.47;;;6.77;;
77598;SDS011;66758;52.078;5.070;2023-11-21T00:45:13;13.87;;;6.00;;
77598;SDS011;66758;52.078;5.070;2023-11-21T00:47:38;15.20;;;6.40;;
77598;SDS011;66758;52.078;5.070;2023-11-21T00:50:04;23.10;;;6.95;;
77598;SDS011;66758;52.078;5.070;2023-11-21T00:52:31;23.63;;;6.23;;
77598;SDS011;66758;52.078;5.070;2023-11-21T00:54:56;20.15;;;5.85;;
77598;SDS011;66758;52.078;5.070;2023-11-21T00:57:24;23.30;;;6.23;;
77598;SDS011;66758;52.078;5.070;2023-11-21T00:59:51;12.18;;;5.50;;
77598;SDS011;66758;52.078;5.070;2023-11-21T01:02:16;18.90;;;6.83;;
77598;SDS011;66758;52.078;5.070;2023-11-21T01:04:42;32.70;;;6.88;;
77598;SDS011;66758;52.078;5.070;2023-11-21T01:07:07;10.30;;;4.90;;
77598;SDS011;66758;52.078;5.070;2023-11-21T01:09:32;30.67;;;6.13;;
77598;SDS011;66758;52.078;5.070;2023-11-21T01:11:57;13.90;;;5.73;;
77598;SDS011;66758;52.078;5.070;2023-11-21T01:14:24;22.20;;;6.03;;
77598;SDS011;66758;52.078;5.070;2023-11-21T01:16:52;20.88;;;6.80;;
77598;SDS011;66758;52.078;5.070;2023-11-21T01:19:17;20.33;;;7.07;;
77598;SDS011;66758;52.078;5.070;2023-11-21T01:21:43;8.33;;;4.87;;
77598;SDS011;66758;52.078;5.070;2023-11-21T01:24:09;8.80;;;5.73;;
77598;SDS011;66758;52.078;5.070;2023-11-21T01:26:35;15.30;;;5.37;;
77598;SDS011;66758;52.078;5.070;2023-11-21T01:29:00;8.50;;;4.70;;
77598;SDS011;66758;52.078;5.070;2023-11-21T01:31:25;10.50;;;5.13;;
77598;SDS011;66758;52.078;5.070;2023-11-21T01:33:55;18.00;;;5.20;;
77598;SDS011;66758;52.078;5.070;2023-11-21T01:36:20;14.73;;;5.30;;
77598;SDS011;66758;52.078;5.070;2023-11-21T01:38:46;16.23;;;6.20;;
77598;SDS011;66758;52.078;5.070;2023-11-21T01:41:13;23.60;;;6.15;;
77598;SDS011;66758;52.078;5.070;2023-11-21T01:43:40;11.48;;;6.68;;
77598;SDS011;66758;52.078;5.070;2023-11-21T01:46:06;12.75;;;7.20;;
77598;SDS011;66758;52.078;5.070;2023-11-21T01:48:31;12.10;;;6.60;;
77598;SDS011;66758;52.078;5.070;2023-11-21T01:50:56;12.17;;;6.03;;
77598;SDS011;66758;52.078;5.070;2023-11-21T01:53:23;11.50;;;6.47;;
77598;SDS011;66758;52.078;5.070;2023-11-21T01:55:48;9.60;;;5.68;;
77598;SDS011;66758;52.078;5.070;2023-11-21T01:58:14;12.07;;;5.82;;
77598;SDS011;66758;52.078;5.070;2023-11-21T02:00:39;14.23;;;6.50;;
77598;SDS011;66758;52.078;5.070;2023-11-21T02:03:04;11.53;;;6.27;;
77598;SDS011;66758;52.078;5.070;2023-11-21T02:05:31;12.02;;;6.50;;
77598;SDS011;66758;52.078;5.070;2023-11-21T02:07:58;10.90;;;5.93;;
77598;SDS011;66758;52.078;5.070;2023-11-21T02:10:23;12.63;;;5.82;;
77598;SDS011;66758;52.078;5.070;2023-11-21T02:12:49;9.90;;;6.17;;
77598;SDS011;66758;52.078;5.070;2023-11-21T02:15:17;12.40;;;5.80;;
77598;SDS011;66758;52.078;5.070;2023-11-21T02:17:46;12.25;;;5.95;;
77598;SDS011;66758;52.078;5.070;2023-11-21T02:20:16;12.85;;;6.30;;
77598;SDS011;66758;52.078;5.070;2023-11-21T02:22:52;12.40;;;6.60;;
77598;SDS011;66758;52.078;5.070;2023-11-21T02:25:25;15.13;;;6.50;;
77598;SDS011;66758;52.078;5.070;2023-11-21T02:27:50;13.20;;;6.57;;
77598;SDS011;66758;52.078;5.070;2023-11-21T02:30:16;10.90;;;6.33;;
77598;SDS011;66758;52.078;5.070;2023-11-21T02:32:41;11.70;;;6.82;;
77598;SDS011;66758;52.078;5.070;2023-11-21T02:35:08;11.10;;;6.20;;
77598;SDS011;66758;52.078;5.070;2023-11-21T02:37:34;11.50;;;6.47;;
77598;SDS011;66758;52.078;5.070;2023-11-21T02:40:01;15.32;;;7.07;;
77598;SDS011;66758;52.078;5.070;2023-11-21T02:42:31;13.50;;;6.75;;
77598;SDS011;66758;52.078;5.070;2023-11-21T02:44:56;11.67;;;6.23;;
77598;SDS011;66758;52.078;5.070;2023-11-21T02:47:22;15.30;;;7.50;;
77598;SDS011;66758;52.078;5.070;2023-11-21T02:49:48;14.85;;;6.90;;
77598;SDS011;66758;52.078;5.070;2023-11-21T02:52:13;14.30;;;6.90;;
77598;SDS011;66758;52.078;5.070;2023-11-21T02:54:38;14.37;;;7.33;;
77598;SDS011;66758;52.078;5.070;2023-11-21T02:57:04;14.40;;;7.27;;
77598;SDS011;66758;52.078;5.070;2023-11-21T02:59:29;12.80;;;6.70;;
77598;SDS011;66758;52.078;5.070;2023-11-21T03:01:54;15.57;;;6.73;;
77598;SDS011;66758;52.078;5.070;2023-11-21T03:04:23;14.70;;;7.20;;
77598;SDS011;66758;52.078;5.070;2023-11-21T03:06:48;12.40;;;6.50;;
77598;SDS011;66758;52.078;5.070;2023-11-21T03:09:13;12.87;;;7.40;;
77598;SDS011;66758;52.078;5.070;2023-11-21T03:11:39;14.00;;;7.30;;
77598;SDS011;66758;52.078;5.070;2023-11-21T03:14:04;12.83;;;6.97;;
77598;SDS011;66758;52.078;5.070;2023-11-21T03:16:31;12.90;;;6.40;;
77598;SDS011;66758;52.078;5.070;2023-11-21T03:18:59;12.13;;;6.57;;
77598;SDS011;66758;52.078;5.070;2023-11-21T03:21:24;11.77;;;6.95;;
77598;SDS011;66758;52.078;5.070;2023-11-21T03:23:51;16.17;;;8.23;;
77598;SDS011;66758;52.078;5.070;2023-11-21T03:26:17;16.48;;;8.35;;
77598;SDS011;66758;52.078;5.070;2023-11-21T03:28:42;16.73;;;8.30;;
77598;SDS011;66758;52.078;5.070;2023-11-21T03:31:07;14.10;;;7.27;;
77598;SDS011;66758;52.078;5.070;2023-11-21T03:33:34;15.18;;;7.22;;
77598;SDS011;66758;52.078;5.070;2023-11-21T03:36:00;15.90;;;7.88;;
77598;SDS011;66758;52.078;5.070;2023-11-21T03:38:25;18.33;;;8.83;;
77598;SDS011;66758;52.078;5.070;2023-11-21T03:40:51;18.17;;;7.67;;
77598;SDS011;66758;52.078;5.070;2023-11-21T03:43:16;15.33;;;8.00;;
77598;SDS011;66758;52.078;5.070;2023-11-21T03:45:41;15.93;;;8.40;;
77598;SDS011;66758;52.078;5.070;2023-11-21T03:48:07;13.20;;;7.10;;
77598;SDS011;66758;52.078;5.070;2023-11-21T03:50:32;13.50;;;7.40;;
77598;SDS011;66758;52.078;5.070;2023-11-21T03:52:57;17.08;;;8.32;;
77598;SDS011;66758;52.078;5.070;2023-11-21T03:55:24;19.37;;;8.30;;
77598;SDS011;66758;52.078;5.070;2023-11-21T03:57:50;13.48;;;7.70;;
77598;SDS011;66758;52.078;5.070;2023-11-21T04:00:16;16.90;;;8.10;;
77598;SDS011;66758;52.078;5.070;2023-11-21T04:02:42;12.80;;;7.38;;
77598;SDS011;66758;52.078;5.070;2023-11-21T04:05:07;14.50;;;7.57;;
77598;SDS011;66758;52.078;5.070;2023-11-21T04:07:32;16.33;;;8.57;;
77598;SDS011;66758;52.078;5.070;2023-11-21T04:09:58;16.17;;;8.50;;
77598;SDS011;66758;52.078;5.070;2023-11-21T04:12:24;15.60;;;7.68;;
77598;SDS011;66758;52.078;5.070;2023-11-21T04:14:49;18.37;;;8.17;;
77598;SDS011;66758;52.078;5.070;2023-11-21T04:17:17;16.92;;;7.93;;
77598;SDS011;66758;52.078;5.070;2023-11-21T04:19:42;15.43;;;7.60;;
77598;SDS011;66758;52.078;5.070;2023-11-21T04:22:08;17.70;;;8.27;;
77598;SDS011;66758;52.078;5.070;2023-11-21T04:24:33;18.87;;;8.23;;
77598;SDS011;66758;52.078;5.070;2023-11-21T04:26:58;16.40;;;8.47;;
77598;SDS011;66758;52.078;5.070;2023-11-21T04:29:24;20.60;;;8.77;;
77598;SDS011;66758;52.078;5.070;2023-11-21T04:31:49;20.47;;;7.97;;
77598;SDS011;66758;52.078;5.070;2023-11-21T04:34:14;17.70;;;7.97;;
77598;SDS011;66758;52.078;5.070;2023-11-21T04:36:40;15.13;;;7.20;;
77598;SDS011;66758;52.078;5.070;2023-11-21T04:39:05;19.30;;;7.97;;
77598;SDS011;66758;52.078;5.070;2023-11-21T04:41:31;17.38;;;7.70;;
77598;SDS011;66758;52.078;5.070;2023-11-21T04:43:57;16.90;;;8.00;;
77598;SDS011;66758;52.078;5.070;2023-11-21T04:46:22;13.50;;;7.80;;
77598;SDS011;66758;52.078;5.070;2023-11-21T04:48:47;18.63;;;6.80;;
77598;SDS011;66758;52.078;5.070;2023-11-21T04:51:12;15.57;;;6.97;;
77598;SDS011;66758;52.078;5.070;2023-11-21T04:53:38;16.53;;;7.33;;
77598;SDS011;66758;52.078;5.070;2023-11-21T04:56:04;16.00;;;6.93;;
77598;SDS011;66758;52.078;5.070;2023-11-21T04:58:31;15.13;;;7.13;;
77598;SDS011;66758;52.078;5.070;2023-11-21T05:00:58;17.23;;;7.07;;
77598;SDS011;66758;52.078;5.070;2023-11-21T05:03:23;19.17;;;7.80;;
77598;SDS011;66758;52.078;5.070;2023-11-21T05:05:49;15.93;;;7.38;;
77598;SDS011;66758;52.078;5.070;2023-11-21T05:08:14;14.57;;;7.27;;
77598;SDS011;66758;52.078;5.070;2023-11-21T05:10:39;21.50;;;8.03;;
77598;SDS011;66758;52.078;5.070;2023-11-21T05:13:05;14.88;;;6.75;;
77598;SDS011;66758;52.078;5.070;2023-11-21T05:15:35;19.02;;;7.85;;
77598;SDS011;66758;52.078;5.070;2023-11-21T05:18:00;17.27;;;7.97;;
77598;SDS011;66758;52.078;5.070;2023-11-21T05:20:26;18.63;;;7.47;;
77598;SDS011;66758;52.078;5.070;2023-11-21T05:22:52;18.53;;;7.43;;
77598;SDS011;66758;52.078;5.070;2023-11-21T05:25:18;18.38;;;6.88;;
77598;SDS011;66758;52.078;5.070;2023-11-21T05:27:44;17.90;;;7.43;;
77598;SDS011;66758;52.078;5.070;2023-11-21T05:30:09;15.70;;;7.13;;
77598;SDS011;66758;52.078;5.070;2023-11-21T05:32:38;17.63;;;7.25;;
77598;SDS011;66758;52.078;5.070;2023-11-21T05:35:03;19.10;;;8.27;;
77598;SDS011;66758;52.078;5.070;2023-11-21T05:37:29;18.67;;;7.55;;
77598;SDS011;66758;52.078;5.070;2023-11-21T05:39:55;17.30;;;6.70;;
77598;SDS011;66758;52.078;5.070;2023-11-21T05:42:23;16.02;;;6.85;;
77598;SDS011;66758;52.078;5.070;2023-11-21T05:44:48;17.23;;;6.83;;
77598;SDS011;66758;52.078;5.070;2023-11-21T05:47:13;16.27;;;8.05;;
77598;SDS011;66758;52.078;5.070;2023-11-21T05:49:39;21.93;;;7.67;;
77598;SDS011;66758;52.078;5.070;2023-11-21T05:52:04;22.03;;;7.80;;
77598;SDS011;66758;52.078;5.070;2023-11-21T05:54:30;19.30;;;7.30;;
77598;SDS011;66758;52.078;5.070;2023-11-21T05:56:55;15.55;;;6.93;;
77598;SDS011;66758;52.078;5.070;2023-11-21T05:59:21;16.63;;;7.87;;
77598;SDS011;66758;52.078;5.070;2023-11-21T06:01:46;20.53;;;7.67;;
77598;SDS011;66758;52.078;5.070;2023-11-21T06:04:11;16.93;;;7.47;;
77598;SDS011;66758;52.078;5.070;2023-11-21T06:06:38;17.27;;;8.00;;
77598;SDS011;66758;52.078;5.070;2023-11-21T06:09:04;20.30;;;8.32;;
77598;SDS011;66758;52.078;5.070;2023-11-21T06:11:31;21.40;;;8.20;;
77598;SDS011;66758;52.078;5.070;2023-11-21T06:13:56;19.37;;;8.90;;
77598;SDS011;66758;52.078;5.070;2023-11-21T06:16:21;24.13;;;9.23;;
77598;SDS011;66758;52.078;5.070;2023-11-21T06:18:46;23.17;;;10.20;;
77598;SDS011;66758;52.078;5.070;2023-11-21T06:21:12;22.53;;;8.77;;
77598;SDS011;66758;52.078;5.070;2023-11-21T06:23:39;27.27;;;10.82;;
77598;SDS011;66758;52.078;5.070;2023-11-21T06:26:04;27.45;;;10.45;;
77598;SDS011;66758;52.078;5.070;2023-11-21T06:28:31;25.67;;;10.90;;
77598;SDS011;66758;52.078;5.070;2023-11-21T06:30:56;25.08;;;11.05;;
77598;SDS011;66758;52.078;5.070;2023-11-21T06:33:23;26.90;;;11.40;;
77598;SDS011;66758;52.078;5.070;2023-11-21T06:35:48;23.10;;;11.38;;
77598;SDS011;66758;52.078;5.070;2023-11-21T06:38:13;22.17;;;10.63;;
77598;SDS011;66758;52.078;5.070;2023-11-21T06:40:39;27.00;;;10.97;;
77598;SDS011;66758;52.078;5.070;2023-11-21T06:43:04;18.77;;;9.70;;
77598;SDS011;66758;52.078;5.070;2023-11-21T06:45:32;28.10;;;10.85;;
77598;SDS011;66758;52.078;5.070;2023-11-21T06:47:57;26.10;;;10.77;;
77598;SDS011;66758;52.078;5.070;2023-11-21T06:50:22;28.50;;;12.20;;
77598;SDS011;66758;52.078;5.070;2023-11-21T06:52:48;31.30;;;12.40;;
77598;SDS011;66758;52.078;5.070;2023-11-21T06:55:13;31.15;;;13.30;;
77598;SDS011;66758;52.078;5.070;2023-11-21T06:57:39;28.63;;;13.00;;
77598;SDS011;66758;52.078;5.070;2023-11-21T07:00:04;37.30;;;15.40;;
77598;SDS011;66758;52.078;5.070;2023-11-21T07:02:30;37.60;;;14.75;;
77598;SDS011;66758;52.078;5.070;2023-11-21T07:04:55;41.67;;;14.13;;
77598;SDS011;66758;52.078;5.070;2023-11-21T07:07:20;34.03;;;13.73;;
77598;SDS011;66758;52.078;5.070;2023-11-21T07:09:46;31.93;;;12.90;;
77598;SDS011;66758;52.078;5.070;2023-11-21T07:12:12;35.72;;;13.60;;
77598;SDS011;66758;52.078;5.070;2023-11-21T07:14:41;33.93;;;13.80;;
77598;SDS011;66758;52.078;5.070;2023-11-21T07:17:08;28.75;;;12.00;;
77598;SDS011;66758;52.078;5.070;2023-11-21T07:19:34;33.13;;;13.20;;
77598;SDS011;66758;52.078;5.070;2023-11-21T07:21:59;30.03;;;13.10;;
77598;SDS011;66758;52.078;5.070;2023-11-21T07:24:24;33.77;;;14.17;;
77598;SDS011;66758;52.078;5.070;2023-11-21T07:26:50;40.77;;;17.47;;
77598;SDS011;66758;52.078;5.070;2023-11-21T07:29:15;39.13;;;18.17;;
77598;SDS011;66758;52.078;5.070;2023-11-21T07:31:40;40.57;;;19.37;;
77598;SDS011;66758;52.078;5.070;2023-11-21T07:34:09;50.22;;;23.65;;
77598;SDS011;66758;52.078;5.070;2023-11-21T07:36:34;47.33;;;23.10;;
77598;SDS011;66758;52.078;5.070;2023-11-21T07:38:59;40.87;;;21.23;;
77598;SDS011;66758;52.078;5.070;2023-11-21T07:41:27;43.95;;;21.42;;
77598;SDS011;66758;52.078;5.070;2023-11-21T07:43:53;43.17;;;18.17;;
77598;SDS011;66758;52.078;5.070;2023-11-21T07:46:18;30.83;;;13.80;;
77598;SDS011;66758;52.078;5.070;2023-11-21T07:48:45;33.03;;;12.93;;
77598;SDS011;66758;52.078;5.070;2023-11-21T07:51:11;27.23;;;10.75;;
77598;SDS011;66758;52.078;5.070;2023-11-21T07:53:38;28.65;;;8.82;;
77598;SDS011;66758;52.078;5.070;2023-11-21T07:56:04;28.10;;;9.23;;
77598;SDS011;66758;52.078;5.070;2023-11-21T07:58:29;20.98;;;6.72;;
77598;SDS011;66758;52.078;5.070;2023-11-21T08:00:54;23.10;;;7.63;;
77598;SDS011;66758;52.078;5.070;2023-11-21T08:03:20;23.13;;;6.73;;
77598;SDS011;66758;52.078;5.070;2023-11-21T08:05:46;25.20;;;7.22;;
77598;SDS011;66758;52.078;5.070;2023-11-21T08:08:11;22.33;;;7.57;;
77598;SDS011;66758;52.078;5.070;2023-11-21T08:10:36;22.87;;;6.87;;
77598;SDS011;66758;52.078;5.070;2023-11-21T08:13:02;19.40;;;6.80;;
77598;SDS011;66758;52.078;5.070;2023-11-21T08:15:28;25.92;;;7.45;;
77598;SDS011;66758;52.078;5.070;2023-11-21T08:17:54;28.17;;;8.63;;
77598;SDS011;66758;52.078;5.070;2023-11-21T08:20:19;28.90;;;7.70;;
77598;SDS011;66758;52.078;5.070;2023-11-21T08:22:45;28.65;;;8.75;;
77598;SDS011;66758;52.078;5.070;2023-11-21T08:25:10;32.80;;;9.33;;
77598;SDS011;66758;52.078;5.070;2023-11-21T08:27:38;27.60;;;8.63;;
77598;SDS011;66758;52.078;5.070;2023-11-21T08:30:04;30.15;;;8.85;;
77598;SDS011;66758;52.078;5.070;2023-11-21T08:32:29;25.07;;;7.90;;
77598;SDS011;66758;52.078;5.070;2023-11-21T08:34:57;24.88;;;7.45;;
77598;SDS011;66758;52.078;5.070;2023-11-21T08:37:22;24.30;;;7.73;;
77598;SDS011;66758;52.078;5.070;2023-11-21T08:39:49;28.85;;;7.95;;
77598;SDS011;66758;52.078;5.070;2023-11-21T08:42:14;29.30;;;8.63;;
77598;SDS011;66758;52.078;5.070;2023-11-21T08:44:39;27.97;;;7.93;;
77598;SDS011;66758;52.078;5.070;2023-11-21T08:47:05;30.75;;;10.40;;
77598;SDS011;66758;52.078;5.070;2023-11-21T08:49:30;40.13;;;13.57;;
77598;SDS011;66758;52.078;5.070;2023-11-21T08:51:56;34.23;;;12.60;;
77598;SDS011;66758;52.078;5.070;2023-11-21T08:54:22;32.22;;;11.27;;
77598;SDS011;66758;52.078;5.070;2023-11-21T08:56:48;26.87;;;9.83;;
77598;SDS011;66758;52.078;5.070;2023-11-21T08:59:13;30.53;;;10.90;;
77598;SDS011;66758;52.078;5.070;2023-11-21T09:01:39;27.45;;;9.95;;
77598;SDS011;66758;52.078;5.070;2023-11-21T09:04:04;25.70;;;9.37;;
77598;SDS011;66758;52.078;5.070;2023-11-21T09:06:30;25.95;;;9.52;;
77598;SDS011;66758;52.078;5.070;2023-11-21T09:08:55;24.33;;;8.67;;
77598;SDS011;66758;52.078;5.070;2023-11-21T09:11:21;29.87;;;7.93;;
77598;SDS011;66758;52.078;5.070;2023-11-21T09:13:47;21.73;;;7.53;;
77598;SDS011;66758;52.078;5.070;2023-11-21T09:16:13;19.10;;;7.13;;
77598;SDS011;66758;52.078;5.070;2023-11-21T09:18:38;18.00;;;5.82;;
77598;SDS011;66758;52.078;5.070;2023-11-21T09:21:04;17.10;;;6.07;;
77598;SDS011;66758;52.078;5.070;2023-11-21T09:23:29;18.90;;;7.10;;
77598;SDS011;66758;52.078;5.070;2023-11-21T09:25:55;18.23;;;6.65;;
77598;SDS011;66758;52.078;5.070;2023-11-21T09:28:23;20.30;;;7.60;;
77598;SDS011;66758;52.078;5.070;2023-11-21T09:30:48;17.25;;;6.20;;
77598;SDS011;66758;52.078;5.070;2023-11-21T09:33:16;17.92;;;7.53;;
77598;SDS011;66758;52.078;5.070;2023-11-21T09:35:41;16.40;;;7.10;;
77598;SDS011;66758;52.078;5.070;2023-11-21T09:38:09;19.90;;;7.75;;
77598;SDS011;66758;52.078;5.070;2023-11-21T09:40:36;17.08;;;7.15;;
77598;SDS011;66758;52.078;5.070;2023-11-21T09:43:02;17.90;;;8.25;;
77598;SDS011;66758;52.078;5.070;2023-11-21T09:45:34;20.17;;;7.72;;
77598;SDS011;66758;52.078;5.070;2023-11-21T09:48:00;13.90;;;6.17;;
77598;SDS011;66758;52.078;5.070;2023-11-21T09:50:26;18.30;;;5.97;;
77598;SDS011;66758;52.078;5.070;2023-11-21T09:55:39;16.53;;;6.20;;
77598;SDS011;66758;52.078;5.070;2023-11-21T09:58:07;15.73;;;6.85;;
77598;SDS011;66758;52.078;5.070;2023-11-21T10:00:36;13.25;;;5.20;;
77598;SDS011;66758;52.078;5.070;2023-11-21T10:03:02;15.53;;;6.23;;
77598;SDS011;66758;52.078;5.070;2023-11-21T10:05:27;17.05;;;7.50;;
77598;SDS011;66758;52.078;5.070;2023-11-21T10:07:53;17.73;;;7.87;;
77598;SDS011;66758;52.078;5.070;2023-11-21T10:10:22;14.52;;;5.88;;
77598;SDS011;66758;52.078;5.070;2023-11-21T10:12:49;14.63;;;6.47;;
77598;SDS011;66758;52.078;5.070;2023-11-21T10:15:18;17.15;;;8.55;;
77598;SDS011;66758;52.078;5.070;2023-11-21T10:17:46;13.10;;;5.00;;
77598;SDS011;66758;52.078;5.070;2023-11-21T10:20:12;12.02;;;5.90;;
77598;SDS011;66758;52.078;5.070;2023-11-21T10:22:39;16.10;;;5.60;;
77598;SDS011;66758;52.078;5.070;2023-11-21T10:25:06;14.48;;;6.05;;
77598;SDS011;66758;52.078;5.070;2023-11-21T10:27:34;14.57;;;6.20;;
77598;SDS011;66758;52.078;5.070;2023-11-21T10:30:03;19.63;;;7.60;;
77598;SDS011;66758;52.078;5.070;2023-11-21T10:32:29;14.40;;;6.57;;
77598;SDS011;66758;52.078;5.070;2023-11-21T10:34:58;15.10;;;5.95;;
77598;SDS011;66758;52.078;5.070;2023-11-21T10:37:25;15.98;;;6.38;;
77598;SDS011;66758;52.078;5.070;2023-11-21T10:39:57;15.17;;;6.73;;
77598;SDS011;66758;52.078;5.070;2023-11-21T10:42:22;14.45;;;5.80;;
77598;SDS011;66758;52.078;5.070;2023-11-21T10:44:49;18.55;;;6.10;;
77598;SDS011;66758;52.078;5.070;2023-11-21T10:47:14;13.43;;;5.23;;
77598;SDS011;66758;52.078;5.070;2023-11-21T10:49:40;14.20;;;4.70;;
77598;SDS011;66758;52.078;5.070;2023-11-21T10:52:06;14.27;;;5.27;;
77598;SDS011;66758;52.078;5.070;2023-11-21T10:54:31;16.37;;;5.53;;
77598;SDS011;66758;52.078;5.070;2023-11-21T10:56:57;14.53;;;5.40;;
77598;SDS011;66758;52.078;5.070;2023-11-21T10:59:24;16.60;;;6.10;;
77598;SDS011;66758;52.078;5.070;2023-11-21T11:01:51;17.33;;;6.57;;
77598;SDS011;66758;52.078;5.070;2023-11-21T11:04:20;15.55;;;6.45;;
77598;SDS011;66758;52.078;5.070;2023-11-21T11:07:08;16.40;;;6.72;;
77598;SDS011;66758;52.078;5.070;2023-11-21T11:09:34;15.18;;;6.00;;
77598;SDS011;66758;52.078;5.070;2023-11-21T11:12:01;18.17;;;6.60;;
77598;SDS011;66758;52.078;5.070;2023-11-21T11:14:26;19.13;;;7.20;;
77598;SDS011;66758;52.078;5.070;2023-11-21T11:16:53;15.23;;;6.60;;
77598;SDS011;66758;52.078;5.070;2023-11-21T11:19:18;18.65;;;7.93;;
77598;SDS011;66758;52.078;5.070;2023-11-21T11:29:36;14.82;;;6.07;;
77598;SDS011;66758;52.078;5.070;2023-11-21T11:32:24;14.93;;;6.60;;
77598;SDS011;66758;52.078;5.070;2023-11-21T11:35:01;18.67;;;6.30;;
77598;SDS011;66758;52.078;5.070;2023-11-21T11:37:28;14.73;;;7.05;;
77598;SDS011;66758;52.078;5.070;2023-11-21T11:39:54;16.87;;;7.73;;
77598;SDS011;66758;52.078;5.070;2023-11-21T11:42:19;20.90;;;7.80;;
77598;SDS011;66758;52.078;5.070;2023-11-21T11:44:48;20.02;;;7.60;;
77598;SDS011;66758;52.078;5.070;2023-11-21T11:47:23;15.77;;;6.65;;
77598;SDS011;66758;52.078;5.070;2023-11-21T11:50:03;23.52;;;8.30;;
77598;SDS011;66758;52.078;5.070;2023-11-21T11:52:32;19.40;;;7.13;;
77598;SDS011;66758;52.078;5.070;2023-11-21T11:54:59;20.20;;;8.40;;
77598;SDS011;66758;52.078;5.070;2023-11-21T11:57:24;19.83;;;8.60;;
77598;SDS011;66758;52.078;5.070;2023-11-21T12:00:08;20.43;;;10.07;;
77598;SDS011;66758;52.078;5.070;2023-11-21T12:02:37;27.08;;;10.88;;
77598;SDS011;66758;52.078;5.070;2023-11-21T12:05:08;30.02;;;13.18;;
77598;SDS011;66758;52.078;5.070;2023-11-21T12:10:16;24.87;;;9.93;;
77598;SDS011;66758;52.078;5.070;2023-11-21T12:12:47;23.95;;;9.60;;
77598;SDS011;66758;52.078;5.070;2023-11-21T12:15:12;29.67;;;11.35;;
77598;SDS011;66758;52.078;5.070;2023-11-21T12:17:39;23.08;;;10.68;;
77598;SDS011;66758;52.078;5.070;2023-11-21T12:20:04;21.93;;;8.60;;
77598;SDS011;66758;52.078;5.070;2023-11-21T12:22:32;24.30;;;10.00;;
77598;SDS011;66758;52.078;5.070;2023-11-21T12:24:57;19.92;;;8.18;;
77598;SDS011;66758;52.078;5.070;2023-11-21T12:27:23;21.90;;;8.97;;
77598;SDS011;66758;52.078;5.070;2023-11-21T12:29:48;17.40;;;7.13;;
77598;SDS011;66758;52.078;5.070;2023-11-21T12:32:14;20.95;;;9.25;;
77598;SDS011;66758;52.078;5.070;2023-11-21T12:34:41;18.93;;;7.13;;
77598;SDS011;66758;52.078;5.070;2023-11-21T12:37:07;19.40;;;7.32;;
77598;SDS011;66758;52.078;5.070;2023-11-21T12:39:32;17.17;;;8.83;;
77598;SDS011;66758;52.078;5.070;2023-11-21T12:41:57;14.77;;;6.67;;
77598;SDS011;66758;52.078;5.070;2023-11-21T12:44:25;17.83;;;7.80;;
77598;SDS011;66758;52.078;5.070;2023-11-21T12:46:50;20.07;;;8.27;;
77598;SDS011;66758;52.078;5.070;2023-11-21T12:49:18;22.45;;;8.85;;
77598;SDS011;66758;52.078;5.070;2023-11-21T12:51:46;21.00;;;9.03;;
77598;SDS011;66758;52.078;5.070;2023-11-21T12:54:12;21.95;;;9.88;;
77598;SDS011;66758;52.078;5.070;2023-11-21T12:56:38;24.58;;;10.88;;
77598;SDS011;66758;52.078;5.070;2023-11-21T12:59:04;25.73;;;10.90;;
77598;SDS011;66758;52.078;5.070;2023-11-21T13:01:31;20.02;;;9.00;;
77598;SDS011;66758;52.078;5.070;2023-11-21T13:03:57;23.63;;;9.43;;
77598;SDS011;66758;52.078;5.070;2023-11-21T13:06:23;17.75;;;8.52;;
77598;SDS011;66758;52.078;5.070;2023-11-21T13:08:50;20.93;;;9.53;;
77598;SDS011;66758;52.078;5.070;2023-11-21T13:11:16;19.43;;;8.50;;
77598;SDS011;66758;52.078;5.070;2023-11-21T13:13:42;17.52;;;7.57;;
77598;SDS011;66758;52.078;5.070;2023-11-21T13:16:08;17.85;;;8.63;;
77598;SDS011;66758;52.078;5.070;2023-11-21T13:18:34;23.05;;;9.52;;
77598;SDS011;66758;52.078;5.070;2023-11-21T13:21:03;19.30;;;8.10;;
77598;SDS011;66758;52.078;5.070;2023-11-21T13:23:35;16.43;;;7.23;;
77598;SDS011;66758;52.078;5.070;2023-11-21T13:26:03;19.38;;;7.47;;
77598;SDS011;66758;52.078;5.070;2023-11-21T13:28:31;17.25;;;6.50;;
77598;SDS011;66758;52.078;5.070;2023-11-21T13:31:07;18.55;;;7.40;;
77598;SDS011;66758;52.078;5.070;2023-11-21T13:33:45;16.25;;;6.63;;
77598;SDS011;66758;52.078;5.070;2023-11-21T13:36:16;16.30;;;7.40;;
77598;SDS011;66758;52.078;5.070;2023-11-21T13:38:47;22.08;;;8.95;;
77598;SDS011;66758;52.078;5.070;2023-11-21T13:41:13;27.75;;;10.98;;
77598;SDS011;66758;52.078;5.070;2023-11-21T13:43:40;28.65;;;10.10;;
77598;SDS011;66758;52.078;5.070;2023-11-21T13:46:09;35.38;;;13.75;;
77598;SDS011;66758;52.078;5.070;2023-11-21T13:48:46;32.17;;;11.63;;
77598;SDS011;66758;52.078;5.070;2023-11-21T13:51:21;31.23;;;12.27;;
77598;SDS011;66758;52.078;5.070;2023-11-21T13:53:55;35.55;;;12.85;;
77598;SDS011;66758;52.078;5.070;2023-11-21T13:56:21;31.13;;;10.77;;
77598;SDS011;66758;52.078;5.070;2023-11-21T13:58:50;30.95;;;10.88;;
77598;SDS011;66758;52.078;5.070;2023-11-21T14:01:26;28.08;;;9.70;;
77598;SDS011;66758;52.078;5.070;2023-11-21T14:03:54;35.10;;;11.18;;
77598;SDS011;66758;52.078;5.070;2023-11-21T14:06:26;31.58;;;12.98;;
77598;SDS011;66758;52.078;5.070;2023-11-21T14:08:59;26.00;;;9.23;;
77598;SDS011;66758;52.078;5.070;2023-11-21T14:11:30;31.20;;;10.20;;
77598;SDS011;66758;52.078;5.070;2023-11-21T14:13:57;29.73;;;11.00;;
77598;SDS011;66758;52.078;5.070;2023-11-21T14:16:25;28.27;;;10.20;;
77598;SDS011;66758;52.078;5.070;2023-11-21T14:18:50;28.98;;;11.63;;
77598;SDS011;66758;52.078;5.070;2023-11-21T14:21:28;27.63;;;11.23;;
77598;SDS011;66758;52.078;5.070;2023-11-21T14:23:54;24.43;;;10.07;;
77598;SDS011;66758;52.078;5.070;2023-11-21T14:26:20;24.35;;;9.75;;
77598;SDS011;66758;52.078;5.070;2023-11-21T14:28:45;20.73;;;9.17;;
77598;SDS011;66758;52.078;5.070;2023-11-21T14:31:14;21.83;;;8.93;;
77598;SDS011;66758;52.078;5.070;2023-11-21T14:33:42;21.15;;;9.38;;
77598;SDS011;66758;52.078;5.070;2023-11-21T14:36:07;22.03;;;9.27;;
77598;SDS011;66758;52.078;5.070;2023-11-21T14:38:35;24.92;;;9.63;;
77598;SDS011;66758;52.078;5.070;2023-11-21T14:41:00;24.47;;;10.07;;
77598;SDS011;66758;52.078;5.070;2023-11-21T14:43:25;25.10;;;9.30;;